Saltar para o conteúdo principal

Lisboa, Amoreiras (LFCL)

ID 7240919 · 38.7239, -9.1649 mapa

Última leitura · 2026-05-09 19:00 (Europe/Lisbon)

Temperatura
16.1 °C
Humidade
89 %
Pressão
1,007.9 hPa
Precipitação
0.0 mm
Radiação
Velocidade do vento
15.5 km/h
Direcção do vento
SW · Sudoeste

Histórico de 24 horas

Hora (Europe/Lisbon) Temperatura Humidade Pressão Chuva Vento Direcção
2026-05-09 19:00 16.1 °C 89 % 1,007.9 0.0 mm 15.5 km/h SW
2026-05-09 18:00 14.7 °C 98 % 1,007.6 0.3 mm 12.6 km/h W
2026-05-09 17:00 14.3 °C 96 % 1,007.4 0.4 mm 14.4 km/h W
2026-05-09 16:00 19.5 °C 73 % 1,006.4 0.0 mm 19.1 km/h W
2026-05-09 15:00 19.8 °C 73 % 1,006.1 0.0 mm 24.1 km/h SW
2026-05-09 14:00 19.1 °C 73 % 1,005.9 0.0 mm 20.5 km/h SW
2026-05-09 13:00 18.9 °C 73 % 1,005.5 0.0 mm 23.8 km/h SW
2026-05-09 12:00 18.1 °C 76 % 1,005.2 0.0 mm 16.9 km/h SW
2026-05-09 11:00 16.6 °C 84 % 1,004.5 0.3 mm 14.4 km/h SW
2026-05-09 10:00 14.6 °C 99 % 1,003.8 0.4 mm 11.2 km/h SW
2026-05-09 09:00 12.9 °C 100 % 1,003.8 0.6 mm 10.8 km/h S
2026-05-09 08:00 11.8 °C 100 % 1,003.8 1.0 mm 5.4 km/h S
2026-05-09 07:00 11.6 °C 100 % 1,003.9 1.2 mm 2.9 km/h SW
2026-05-09 06:00 12.2 °C 100 % 1,003.8 0.9 mm 13.7 km/h SW
2026-05-09 05:00 12.0 °C 100 % 1,004.3 1.6 mm 3.2 km/h SW
2026-05-09 04:00 12.2 °C 100 % 1,004.9 3.0 mm 8.6 km/h S
2026-05-09 03:00 11.6 °C 100 % 1,005.4 5.2 mm 5.4 km/h SE
2026-05-09 02:00 11.9 °C 97 % 1,005.9 3.2 mm 6.8 km/h SE
2026-05-09 01:00 14.3 °C 87 % 1,006.2 0.0 mm 10.1 km/h S
2026-05-09 00:00 14.7 °C 85 % 1,006.3 0.0 mm 14.0 km/h SW
2026-05-08 23:00 15.0 °C 87 % 1,006.1 0.0 mm 15.8 km/h S
2026-05-08 22:00 14.9 °C 90 % 1,005.9 0.1 mm 11.5 km/h S
2026-05-08 21:00 16.0 °C 82 % 1,006.5 0.0 mm 11.9 km/h S
2026-05-08 20:00 16.4 °C 78 % 1,006.3 0.0 mm 11.2 km/h S